sensor_id;sensor_type;location;lat;lon;timestamp;temperature;humidity
70336;SHT31;57756;47.408;18.940;2023-05-10T00:02:02;11.55;81.75
70336;SHT31;57756;47.408;18.940;2023-05-10T00:04:28;11.50;81.94
70336;SHT31;57756;47.408;18.940;2023-05-10T00:06:54;11.46;82.23
70336;SHT31;57756;47.408;18.940;2023-05-10T00:09:19;11.44;82.38
70336;SHT31;57756;47.408;18.940;2023-05-10T00:11:45;11.35;82.48
70336;SHT31;57756;47.408;18.940;2023-05-10T00:14:11;11.36;82.56
70336;SHT31;57756;47.408;18.940;2023-05-10T00:16:37;11.28;82.81
70336;SHT31;57756;47.408;18.940;2023-05-10T00:19:02;11.25;83.18
70336;SHT31;57756;47.408;18.940;2023-05-10T00:21:28;11.27;83.19
70336;SHT31;57756;47.408;18.940;2023-05-10T00:23:53;11.23;83.10
70336;SHT31;57756;47.408;18.940;2023-05-10T00:26:19;11.20;83.41
70336;SHT31;57756;47.408;18.940;2023-05-10T00:28:45;11.21;83.49
70336;SHT31;57756;47.408;18.940;2023-05-10T00:31:10;11.18;83.57
70336;SHT31;57756;47.408;18.940;2023-05-10T00:33:36;11.14;83.55
70336;SHT31;57756;47.408;18.940;2023-05-10T00:36:01;11.18;83.51
70336;SHT31;57756;47.408;18.940;2023-05-10T00:38:27;11.16;83.44
70336;SHT31;57756;47.408;18.940;2023-05-10T00:40:52;11.08;83.89
70336;SHT31;57756;47.408;18.940;2023-05-10T00:43:18;11.03;84.05
70336;SHT31;57756;47.408;18.940;2023-05-10T00:45:44;11.00;84.11
70336;SHT31;57756;47.408;18.940;2023-05-10T00:48:09;11.04;84.14
70336;SHT31;57756;47.408;18.940;2023-05-10T00:50:35;11.04;84.37
70336;SHT31;57756;47.408;18.940;2023-05-10T00:53:01;11.03;84.22
70336;SHT31;57756;47.408;18.940;2023-05-10T00:55:27;10.95;84.58
70336;SHT31;57756;47.408;18.940;2023-05-10T00:57:53;10.97;84.59
70336;SHT31;57756;47.408;18.940;2023-05-10T01:00:19;10.97;84.95
70336;SHT31;57756;47.408;18.940;2023-05-10T01:02:45;10.90;84.04
70336;SHT31;57756;47.408;18.940;2023-05-10T01:05:12;10.86;84.73
70336;SHT31;57756;47.408;18.940;2023-05-10T01:07:37;10.87;84.63
70336;SHT31;57756;47.408;18.940;2023-05-10T01:10:03;10.81;84.67
70336;SHT31;57756;47.408;18.940;2023-05-10T01:12:28;10.89;85.52
70336;SHT31;57756;47.408;18.940;2023-05-10T01:14:54;10.90;85.36
70336;SHT31;57756;47.408;18.940;2023-05-10T01:17:21;10.89;84.97
70336;SHT31;57756;47.408;18.940;2023-05-10T01:19:47;10.81;85.38
70336;SHT31;57756;47.408;18.940;2023-05-10T01:22:57;10.81;85.64
70336;SHT31;57756;47.408;18.940;2023-05-10T01:33:57;10.69;85.81
70336;SHT31;57756;47.408;18.940;2023-05-10T01:36:46;10.69;86.10
70336;SHT31;57756;47.408;18.940;2023-05-10T01:41:54;10.60;86.46
70336;SHT31;57756;47.408;18.940;2023-05-10T01:44:29;10.49;86.91
70336;SHT31;57756;47.408;18.940;2023-05-10T01:47:17;10.49;86.31
70336;SHT31;57756;47.408;18.940;2023-05-10T01:49:50;10.50;86.73
70336;SHT31;57756;47.408;18.940;2023-05-10T01:52:18;10.52;86.03
70336;SHT31;57756;47.408;18.940;2023-05-10T01:54:53;10.55;85.78
70336;SHT31;57756;47.408;18.940;2023-05-10T01:57:22;10.53;86.45
70336;SHT31;57756;47.408;18.940;2023-05-10T01:59:50;10.52;86.62
70336;SHT31;57756;47.408;18.940;2023-05-10T02:02:17;10.48;86.89
70336;SHT31;57756;47.408;18.940;2023-05-10T02:04:44;10.45;86.74
70336;SHT31;57756;47.408;18.940;2023-05-10T02:07:10;10.48;86.78
70336;SHT31;57756;47.408;18.940;2023-05-10T02:09:37;10.48;87.12
70336;SHT31;57756;47.408;18.940;2023-05-10T02:12:05;10.45;86.95
70336;SHT31;57756;47.408;18.940;2023-05-10T02:14:35;10.55;87.04
70336;SHT31;57756;47.408;18.940;2023-05-10T02:17:02;10.56;86.74
70336;SHT31;57756;47.408;18.940;2023-05-10T02:19:31;10.63;86.87
70336;SHT31;57756;47.408;18.940;2023-05-10T02:21:59;10.66;86.95
70336;SHT31;57756;47.408;18.940;2023-05-10T02:24:25;10.65;86.84
70336;SHT31;57756;47.408;18.940;2023-05-10T02:26:53;10.66;87.03
70336;SHT31;57756;47.408;18.940;2023-05-10T02:29:20;10.73;86.64
70336;SHT31;57756;47.408;18.940;2023-05-10T02:31:45;10.83;86.47
70336;SHT31;57756;47.408;18.940;2023-05-10T02:34:12;10.87;85.93
70336;SHT31;57756;47.408;18.940;2023-05-10T02:36:39;10.93;85.92
70336;SHT31;57756;47.408;18.940;2023-05-10T02:39:06;10.99;85.41
70336;SHT31;57756;47.408;18.940;2023-05-10T02:41:35;11.01;85.55
70336;SHT31;57756;47.408;18.940;2023-05-10T02:44:02;11.00;85.68
70336;SHT31;57756;47.408;18.940;2023-05-10T02:46:28;11.01;85.45
70336;SHT31;57756;47.408;18.940;2023-05-10T02:48:53;11.08;85.06
70336;SHT31;57756;47.408;18.940;2023-05-10T02:51:20;11.10;84.94
70336;SHT31;57756;47.408;18.940;2023-05-10T02:53:50;11.10;85.32
70336;SHT31;57756;47.408;18.940;2023-05-10T02:56:31;11.06;85.06
70336;SHT31;57756;47.408;18.940;2023-05-10T02:58:58;11.08;84.85
70336;SHT31;57756;47.408;18.940;2023-05-10T03:01:23;11.03;84.76
70336;SHT31;57756;47.408;18.940;2023-05-10T03:03:49;10.92;85.16
70336;SHT31;57756;47.408;18.940;2023-05-10T03:06:14;10.92;85.32
70336;SHT31;57756;47.408;18.940;2023-05-10T03:08:41;10.87;85.14
70336;SHT31;57756;47.408;18.940;2023-05-10T03:11:22;10.87;84.84
70336;SHT31;57756;47.408;18.940;2023-05-10T03:14:13;10.80;84.89
70336;SHT31;57756;47.408;18.940;2023-05-10T03:16:45;10.76;85.17
70336;SHT31;57756;47.408;18.940;2023-05-10T03:19:34;10.73;85.50
70336;SHT31;57756;47.408;18.940;2023-05-10T03:22:05;10.70;85.30
70336;SHT31;57756;47.408;18.940;2023-05-10T03:24:34;10.68;85.57
70336;SHT31;57756;47.408;18.940;2023-05-10T03:27:01;10.66;85.45
70336;SHT31;57756;47.408;18.940;2023-05-10T03:29:30;10.62;85.98
70336;SHT31;57756;47.408;18.940;2023-05-10T03:31:58;10.63;85.67
70336;SHT31;57756;47.408;18.940;2023-05-10T03:34:24;10.60;85.85
70336;SHT31;57756;47.408;18.940;2023-05-10T03:36:50;10.55;86.07
70336;SHT31;57756;47.408;18.940;2023-05-10T03:39:16;10.42;86.42
70336;SHT31;57756;47.408;18.940;2023-05-10T03:41:41;10.41;86.33
70336;SHT31;57756;47.408;18.940;2023-05-10T03:44:07;10.39;86.42
70336;SHT31;57756;47.408;18.940;2023-05-10T03:46:32;10.45;86.18
70336;SHT31;57756;47.408;18.940;2023-05-10T03:48:58;10.42;86.26
70336;SHT31;57756;47.408;18.940;2023-05-10T03:51:23;10.48;85.88
70336;SHT31;57756;47.408;18.940;2023-05-10T03:53:53;10.48;85.51
70336;SHT31;57756;47.408;18.940;2023-05-10T03:56:19;10.50;85.86
70336;SHT31;57756;47.408;18.940;2023-05-10T03:58:46;10.44;86.03
70336;SHT31;57756;47.408;18.940;2023-05-10T04:01:11;10.44;86.02
70336;SHT31;57756;47.408;18.940;2023-05-10T04:03:36;10.39;86.19
70336;SHT31;57756;47.408;18.940;2023-05-10T04:06:03;10.38;85.84
70336;SHT31;57756;47.408;18.940;2023-05-10T04:08:29;10.37;86.27
70336;SHT31;57756;47.408;18.940;2023-05-10T04:10:55;10.37;86.26
70336;SHT31;57756;47.408;18.940;2023-05-10T04:13:29;10.38;85.98
70336;SHT31;57756;47.408;18.940;2023-05-10T04:15:54;10.46;85.36
70336;SHT31;57756;47.408;18.940;2023-05-10T04:18:20;10.53;85.34
70336;SHT31;57756;47.408;18.940;2023-05-10T04:20:45;10.59;85.06
70336;SHT31;57756;47.408;18.940;2023-05-10T04:23:11;10.69;84.68
70336;SHT31;57756;47.408;18.940;2023-05-10T04:25:36;10.80;84.79
70336;SHT31;57756;47.408;18.940;2023-05-10T04:28:02;10.89;84.12
70336;SHT31;57756;47.408;18.940;2023-05-10T04:30:27;10.95;83.79
70336;SHT31;57756;47.408;18.940;2023-05-10T04:32:54;11.06;83.60
70336;SHT31;57756;47.408;18.940;2023-05-10T04:35:19;11.20;82.97
70336;SHT31;57756;47.408;18.940;2023-05-10T04:37:45;11.31;82.81
70336;SHT31;57756;47.408;18.940;2023-05-10T04:40:10;11.39;82.35
70336;SHT31;57756;47.408;18.940;2023-05-10T04:42:36;11.54;82.25
70336;SHT31;57756;47.408;18.940;2023-05-10T04:45:01;11.62;82.02
70336;SHT31;57756;47.408;18.940;2023-05-10T04:47:27;11.76;81.21
70336;SHT31;57756;47.408;18.940;2023-05-10T04:49:53;11.92;80.53
70336;SHT31;57756;47.408;18.940;2023-05-10T04:52:18;12.13;80.20
70336;SHT31;57756;47.408;18.940;2023-05-10T04:54:44;12.27;79.66
70336;SHT31;57756;47.408;18.940;2023-05-10T04:57:09;12.36;78.86
70336;SHT31;57756;47.408;18.940;2023-05-10T04:59:36;12.59;78.99
70336;SHT31;57756;47.408;18.940;2023-05-10T05:02:02;12.68;78.14
70336;SHT31;57756;47.408;18.940;2023-05-10T05:04:29;12.89;77.66
70336;SHT31;57756;47.408;18.940;2023-05-10T05:06:54;13.06;77.73
70336;SHT31;57756;47.408;18.940;2023-05-10T05:09:20;13.19;77.29
70336;SHT31;57756;47.408;18.940;2023-05-10T05:11:45;13.14;77.22
70336;SHT31;57756;47.408;18.940;2023-05-10T05:14:11;13.34;76.46
70336;SHT31;57756;47.408;18.940;2023-05-10T05:16:36;13.36;76.50
70336;SHT31;57756;47.408;18.940;2023-05-10T05:19:02;13.24;76.72
70336;SHT31;57756;47.408;18.940;2023-05-10T05:21:27;13.22;76.46
70336;SHT31;57756;47.408;18.940;2023-05-10T05:23:54;13.53;76.54
70336;SHT31;57756;47.408;18.940;2023-05-10T05:26:19;13.95;75.83
70336;SHT31;57756;47.408;18.940;2023-05-10T05:28:45;14.23;74.71
70336;SHT31;57756;47.408;18.940;2023-05-10T05:31:10;14.48;73.39
70336;SHT31;57756;47.408;18.940;2023-05-10T05:33:36;14.70;72.59
70336;SHT31;57756;47.408;18.940;2023-05-10T05:36:02;14.95;72.57
70336;SHT31;57756;47.408;18.940;2023-05-10T05:38:28;15.28;72.03
70336;SHT31;57756;47.408;18.940;2023-05-10T05:40:54;15.32;69.90
70336;SHT31;57756;47.408;18.940;2023-05-10T05:43:19;15.36;70.67
70336;SHT31;57756;47.408;18.940;2023-05-10T05:45:45;15.49;70.80
70336;SHT31;57756;47.408;18.940;2023-05-10T05:48:10;15.80;69.24
70336;SHT31;57756;47.408;18.940;2023-05-10T05:50:36;16.07;69.23
70336;SHT31;57756;47.408;18.940;2023-05-10T05:53:02;16.07;68.64
70336;SHT31;57756;47.408;18.940;2023-05-10T05:55:27;16.29;68.62
70336;SHT31;57756;47.408;18.940;2023-05-10T05:57:53;16.35;67.86
70336;SHT31;57756;47.408;18.940;2023-05-10T06:00:19;16.15;68.18
70336;SHT31;57756;47.408;18.940;2023-05-10T06:02:44;16.05;68.00
70336;SHT31;57756;47.408;18.940;2023-05-10T06:05:10;16.22;67.12
70336;SHT31;57756;47.408;18.940;2023-05-10T06:07:35;16.51;67.01
70336;SHT31;57756;47.408;18.940;2023-05-10T06:10:01;16.97;66.42
70336;SHT31;57756;47.408;18.940;2023-05-10T06:12:28;17.21;65.27
70336;SHT31;57756;47.408;18.940;2023-05-10T06:14:53;17.07;65.52
70336;SHT31;57756;47.408;18.940;2023-05-10T06:17:19;17.20;65.31
70336;SHT31;57756;47.408;18.940;2023-05-10T06:19:44;17.49;64.48
70336;SHT31;57756;47.408;18.940;2023-05-10T06:22:10;17.85;64.59
70336;SHT31;57756;47.408;18.940;2023-05-10T06:24:35;17.56;63.72
70336;SHT31;57756;47.408;18.940;2023-05-10T06:27:01;17.86;63.67
70336;SHT31;57756;47.408;18.940;2023-05-10T06:29:27;17.55;62.68
70336;SHT31;57756;47.408;18.940;2023-05-10T06:31:52;17.59;62.84
70336;SHT31;57756;47.408;18.940;2023-05-10T06:34:18;17.43;63.34
70336;SHT31;57756;47.408;18.940;2023-05-10T06:36:44;17.59;62.70
70336;SHT31;57756;47.408;18.940;2023-05-10T06:39:09;17.83;62.20
70336;SHT31;57756;47.408;18.940;2023-05-10T06:41:36;18.03;62.59
70336;SHT31;57756;47.408;18.940;2023-05-10T06:44:02;18.11;62.60
70336;SHT31;57756;47.408;18.940;2023-05-10T06:46:28;18.38;62.01
70336;SHT31;57756;47.408;18.940;2023-05-10T06:48:54;18.41;61.03
70336;SHT31;57756;47.408;18.940;2023-05-10T06:51:19;18.10;62.02
70336;SHT31;57756;47.408;18.940;2023-05-10T06:53:46;18.13;61.57
70336;SHT31;57756;47.408;18.940;2023-05-10T06:56:12;18.07;61.88
70336;SHT31;57756;47.408;18.940;2023-05-10T06:58:37;18.06;61.42
70336;SHT31;57756;47.408;18.940;2023-05-10T07:01:04;18.41;61.90
70336;SHT31;57756;47.408;18.940;2023-05-10T07:03:30;18.65;61.10
70336;SHT31;57756;47.408;18.940;2023-05-10T07:06:05;18.24;62.00
70336;SHT31;57756;47.408;18.940;2023-05-10T07:08:32;18.04;62.19
70336;SHT31;57756;47.408;18.940;2023-05-10T07:11:02;18.03;61.81
70336;SHT31;57756;47.408;18.940;2023-05-10T07:13:31;18.14;62.42
70336;SHT31;57756;47.408;18.940;2023-05-10T07:15:57;18.00;61.55
70336;SHT31;57756;47.408;18.940;2023-05-10T07:18:23;17.68;62.20
70336;SHT31;57756;47.408;18.940;2023-05-10T07:20:49;18.41;61.25
70336;SHT31;57756;47.408;18.940;2023-05-10T07:23:15;17.94;61.18
70336;SHT31;57756;47.408;18.940;2023-05-10T07:25:40;18.61;61.03
70336;SHT31;57756;47.408;18.940;2023-05-10T07:28:06;19.46;60.01
70336;SHT31;57756;47.408;18.940;2023-05-10T07:30:31;19.34;58.40
70336;SHT31;57756;47.408;18.940;2023-05-10T07:32:57;18.86;60.47
70336;SHT31;57756;47.408;18.940;2023-05-10T07:35:22;18.66;60.32
70336;SHT31;57756;47.408;18.940;2023-05-10T07:37:48;18.24;61.06
70336;SHT31;57756;47.408;18.940;2023-05-10T07:40:13;18.82;60.02
70336;SHT31;57756;47.408;18.940;2023-05-10T07:42:39;19.31;59.74
70336;SHT31;57756;47.408;18.940;2023-05-10T07:45:05;19.89;57.52
70336;SHT31;57756;47.408;18.940;2023-05-10T07:47:30;19.71;56.94
70336;SHT31;57756;47.408;18.940;2023-05-10T07:49:56;19.32;57.73
70336;SHT31;57756;47.408;18.940;2023-05-10T07:52:21;19.00;58.83
70336;SHT31;57756;47.408;18.940;2023-05-10T07:54:46;18.99;57.95
70336;SHT31;57756;47.408;18.940;2023-05-10T07:57:12;18.62;59.37
70336;SHT31;57756;47.408;18.940;2023-05-10T07:59:39;18.21;60.08
70336;SHT31;57756;47.408;18.940;2023-05-10T08:02:05;18.28;60.56
70336;SHT31;57756;47.408;18.940;2023-05-10T08:04:31;19.48;59.03
70336;SHT31;57756;47.408;18.940;2023-05-10T08:06:57;20.34;57.14
70336;SHT31;57756;47.408;18.940;2023-05-10T08:09:22;20.39;56.48
70336;SHT31;57756;47.408;18.940;2023-05-10T08:11:49;20.65;56.12
70336;SHT31;57756;47.408;18.940;2023-05-10T08:14:16;20.05;55.83
70336;SHT31;57756;47.408;18.940;2023-05-10T08:16:41;19.82;57.04
70336;SHT31;57756;47.408;18.940;2023-05-10T08:19:07;20.39;56.20
70336;SHT31;57756;47.408;18.940;2023-05-10T08:21:32;20.71;56.60
70336;SHT31;57756;47.408;18.940;2023-05-10T08:23:57;20.29;54.59
70336;SHT31;57756;47.408;18.940;2023-05-10T08:26:23;19.92;56.32
70336;SHT31;57756;47.408;18.940;2023-05-10T08:28:48;19.57;57.66
70336;SHT31;57756;47.408;18.940;2023-05-10T08:31:15;19.26;57.54
70336;SHT31;57756;47.408;18.940;2023-05-10T08:33:40;19.10;57.87
70336;SHT31;57756;47.408;18.940;2023-05-10T08:36:06;19.65;56.04
70336;SHT31;57756;47.408;18.940;2023-05-10T08:38:31;19.19;57.40
70336;SHT31;57756;47.408;18.940;2023-05-10T08:40:57;19.62;56.86
70336;SHT31;57756;47.408;18.940;2023-05-10T08:43:27;20.40;55.37
70336;SHT31;57756;47.408;18.940;2023-05-10T08:45:54;21.06;54.17
70336;SHT31;57756;47.408;18.940;2023-05-10T08:48:25;21.06;53.68
70336;SHT31;57756;47.408;18.940;2023-05-10T08:50:53;21.61;53.93
70336;SHT31;57756;47.408;18.940;2023-05-10T08:53:20;20.95;53.26
70336;SHT31;57756;47.408;18.940;2023-05-10T08:55:47;21.40;53.57
70336;SHT31;57756;47.408;18.940;2023-05-10T08:58:12;20.82;53.93
70336;SHT31;57756;47.408;18.940;2023-05-10T09:00:38;20.50;55.04
70336;SHT31;57756;47.408;18.940;2023-05-10T09:03:05;21.36;53.18
70336;SHT31;57756;47.408;18.940;2023-05-10T09:05:31;21.33;53.26
70336;SHT31;57756;47.408;18.940;2023-05-10T09:07:57;21.73;53.07
70336;SHT31;57756;47.408;18.940;2023-05-10T09:10:25;22.38;51.76
70336;SHT31;57756;47.408;18.940;2023-05-10T09:12:53;20.51;53.49
70336;SHT31;57756;47.408;18.940;2023-05-10T09:15:19;20.04;53.94
70336;SHT31;57756;47.408;18.940;2023-05-10T09:17:47;19.90;54.71
70336;SHT31;57756;47.408;18.940;2023-05-10T09:20:12;20.95;53.45
70336;SHT31;57756;47.408;18.940;2023-05-10T09:22:37;20.98;54.78
70336;SHT31;57756;47.408;18.940;2023-05-10T09:25:11;20.87;53.92
70336;SHT31;57756;47.408;18.940;2023-05-10T09:27:39;21.15;53.51
70336;SHT31;57756;47.408;18.940;2023-05-10T09:30:06;21.35;54.02
70336;SHT31;57756;47.408;18.940;2023-05-10T09:32:42;21.23;53.64
70336;SHT31;57756;47.408;18.940;2023-05-10T09:35:13;21.66;52.21
70336;SHT31;57756;47.408;18.940;2023-05-10T09:37:39;20.64;53.03
70336;SHT31;57756;47.408;18.940;2023-05-10T09:40:18;20.85;53.10
70336;SHT31;57756;47.408;18.940;2023-05-10T09:42:55;20.77;53.16
70336;SHT31;57756;47.408;18.940;2023-05-10T09:45:22;20.67;53.52
70336;SHT31;57756;47.408;18.940;2023-05-10T09:47:47;21.63;53.02
70336;SHT31;57756;47.408;18.940;2023-05-10T09:50:13;21.25;53.30
70336;SHT31;57756;47.408;18.940;2023-05-10T09:52:59;21.22;52.05
70336;SHT31;57756;47.408;18.940;2023-05-10T09:55:45;20.45;54.39
70336;SHT31;57756;47.408;18.940;2023-05-10T09:58:12;20.23;54.65
70336;SHT31;57756;47.408;18.940;2023-05-10T10:00:42;20.72;53.36
70336;SHT31;57756;47.408;18.940;2023-05-10T10:03:14;21.97;49.50
70336;SHT31;57756;47.408;18.940;2023-05-10T10:05:41;21.57;51.94
70336;SHT31;57756;47.408;18.940;2023-05-10T10:08:08;21.15;53.78
70336;SHT31;57756;47.408;18.940;2023-05-10T10:10:34;21.84;52.63
70336;SHT31;57756;47.408;18.940;2023-05-10T10:13:02;21.71;52.68
70336;SHT31;57756;47.408;18.940;2023-05-10T10:15:27;20.63;53.23
70336;SHT31;57756;47.408;18.940;2023-05-10T10:17:53;20.51;53.43
70336;SHT31;57756;47.408;18.940;2023-05-10T10:20:21;19.95;55.51
70336;SHT31;57756;47.408;18.940;2023-05-10T10:22:47;19.67;56.33
70336;SHT31;57756;47.408;18.940;2023-05-10T10:25:17;19.69;55.87
70336;SHT31;57756;47.408;18.940;2023-05-10T10:35:50;19.67;55.15
70336;SHT31;57756;47.408;18.940;2023-05-10T10:38:17;20.48;53.62
70336;SHT31;57756;47.408;18.940;2023-05-10T10:40:43;20.44;53.96
70336;SHT31;57756;47.408;18.940;2023-05-10T10:43:25;20.64;53.22
70336;SHT31;57756;47.408;18.940;2023-05-10T10:46:18;21.70;50.81
70336;SHT31;57756;47.408;18.940;2023-05-10T10:48:50;21.26;51.86
70336;SHT31;57756;47.408;18.940;2023-05-10T10:51:37;20.95;53.94
70336;SHT31;57756;47.408;18.940;2023-05-10T10:54:10;21.12;51.48
70336;SHT31;57756;47.408;18.940;2023-05-10T10:56:35;20.58;52.93
70336;SHT31;57756;47.408;18.940;2023-05-10T10:59:01;21.39;53.03
70336;SHT31;57756;47.408;18.940;2023-05-10T11:01:32;22.42;50.83
70336;SHT31;57756;47.408;18.940;2023-05-10T11:06:33;21.37;51.36
70336;SHT31;57756;47.408;18.940;2023-05-10T11:09:05;21.50;51.18
70336;SHT31;57756;47.408;18.940;2023-05-10T11:11:31;21.29;52.35
70336;SHT31;57756;47.408;18.940;2023-05-10T11:14:06;20.54;52.11
70336;SHT31;57756;47.408;18.940;2023-05-10T11:16:42;20.44;52.29
70336;SHT31;57756;47.408;18.940;2023-05-10T11:19:11;20.34;53.19
70336;SHT31;57756;47.408;18.940;2023-05-10T11:24:17;20.71;52.19
70336;SHT31;57756;47.408;18.940;2023-05-10T11:26:43;20.27;53.08
70336;SHT31;57756;47.408;18.940;2023-05-10T11:29:09;20.10;53.64
70336;SHT31;57756;47.408;18.940;2023-05-10T11:31:35;20.00;53.15
70336;SHT31;57756;47.408;18.940;2023-05-10T11:34:06;19.83;53.94
70336;SHT31;57756;47.408;18.940;2023-05-10T11:36:35;19.64;54.10
70336;SHT31;57756;47.408;18.940;2023-05-10T11:39:01;19.74;53.29
70336;SHT31;57756;47.408;18.940;2023-05-10T11:41:28;20.04;53.71
70336;SHT31;57756;47.408;18.940;2023-05-10T11:43:55;20.48;53.14
70336;SHT31;57756;47.408;18.940;2023-05-10T11:46:23;20.78;51.50
70336;SHT31;57756;47.408;18.940;2023-05-10T11:48:50;20.99;50.81
70336;SHT31;57756;47.408;18.940;2023-05-10T11:51:20;20.37;50.56
70336;SHT31;57756;47.408;18.940;2023-05-10T11:53:46;20.36;51.73
70336;SHT31;57756;47.408;18.940;2023-05-10T11:56:11;20.57;51.54
70336;SHT31;57756;47.408;18.940;2023-05-10T11:58:38;21.63;51.65
70336;SHT31;57756;47.408;18.940;2023-05-10T12:01:05;21.35;50.56
70336;SHT31;57756;47.408;18.940;2023-05-10T12:03:31;20.74;51.11
70336;SHT31;57756;47.408;18.940;2023-05-10T12:05:57;20.26;51.73
70336;SHT31;57756;47.408;18.940;2023-05-10T12:08:25;20.26;52.47
70336;SHT31;57756;47.408;18.940;2023-05-10T12:10:51;20.16;52.11
70336;SHT31;57756;47.408;18.940;2023-05-10T12:13:17;19.96;52.55
70336;SHT31;57756;47.408;18.940;2023-05-10T12:15:43;20.06;52.67
70336;SHT31;57756;47.408;18.940;2023-05-10T12:18:09;20.43;51.92
70336;SHT31;57756;47.408;18.940;2023-05-10T12:20:36;20.67;51.35
70336;SHT31;57756;47.408;18.940;2023-05-10T12:23:02;20.95;51.10
70336;SHT31;57756;47.408;18.940;2023-05-10T12:25:36;20.87;50.90
70336;SHT31;57756;47.408;18.940;2023-05-10T12:28:08;20.55;51.22
70336;SHT31;57756;47.408;18.940;2023-05-10T12:30:35;20.24;51.45
70336;SHT31;57756;47.408;18.940;2023-05-10T12:33:12;20.78;52.75
70336;SHT31;57756;47.408;18.940;2023-05-10T12:35:52;21.06;51.19
70336;SHT31;57756;47.408;18.940;2023-05-10T12:38:29;21.16;52.18
70336;SHT31;57756;47.408;18.940;2023-05-10T12:40:56;21.09;50.62
70336;SHT31;57756;47.408;18.940;2023-05-10T12:43:21;20.84;50.95
70336;SHT31;57756;47.408;18.940;2023-05-10T12:45:47;20.92;50.21
70336;SHT31;57756;47.408;18.940;2023-05-10T12:48:16;20.94;50.69
70336;SHT31;57756;47.408;18.940;2023-05-10T12:50:42;21.29;50.46
70336;SHT31;57756;47.408;18.940;2023-05-10T12:53:07;20.98;50.92
70336;SHT31;57756;47.408;18.940;2023-05-10T12:55:33;20.95;51.59
70336;SHT31;57756;47.408;18.940;2023-05-10T12:57:59;20.75;50.63
70336;SHT31;57756;47.408;18.940;2023-05-10T13:00:24;20.85;50.63
70336;SHT31;57756;47.408;18.940;2023-05-10T13:02:50;20.95;50.13
70336;SHT31;57756;47.408;18.940;2023-05-10T13:05:15;20.85;50.39
70336;SHT31;57756;47.408;18.940;2023-05-10T13:07:41;20.90;50.03
70336;SHT31;57756;47.408;18.940;2023-05-10T13:10:06;21.09;50.63
70336;SHT31;57756;47.408;18.940;2023-05-10T13:12:32;20.85;49.70
70336;SHT31;57756;47.408;18.940;2023-05-10T13:14:58;20.82;49.77
70336;SHT31;57756;47.408;18.940;2023-05-10T13:17:25;21.01;50.07
70336;SHT31;57756;47.408;18.940;2023-05-10T13:19:50;20.85;50.10
70336;SHT31;57756;47.408;18.940;2023-05-10T13:22:16;21.03;49.37
70336;SHT31;57756;47.408;18.940;2023-05-10T13:24:41;20.90;48.13
70336;SHT31;57756;47.408;18.940;2023-05-10T13:27:06;21.10;47.61
70336;SHT31;57756;47.408;18.940;2023-05-10T13:29:32;21.23;48.81
70336;SHT31;57756;47.408;18.940;2023-05-10T13:31:58;21.26;49.13
70336;SHT31;57756;47.408;18.940;2023-05-10T13:34:24;21.22;50.37
70336;SHT31;57756;47.408;18.940;2023-05-10T13:36:49;21.05;50.57
70336;SHT31;57756;47.408;18.940;2023-05-10T13:39:15;21.01;49.29
70336;SHT31;57756;47.408;18.940;2023-05-10T13:41:41;20.80;49.14
70336;SHT31;57756;47.408;18.940;2023-05-10T13:44:06;21.05;49.51
70336;SHT31;57756;47.408;18.940;2023-05-10T13:46:32;20.81;49.45
70336;SHT31;57756;47.408;18.940;2023-05-10T13:48:57;21.03;49.75
70336;SHT31;57756;47.408;18.940;2023-05-10T13:51:23;21.01;48.75
70336;SHT31;57756;47.408;18.940;2023-05-10T13:53:48;20.94;49.56
70336;SHT31;57756;47.408;18.940;2023-05-10T13:56:14;20.63;49.23
70336;SHT31;57756;47.408;18.940;2023-05-10T13:58:39;20.91;49.20
70336;SHT31;57756;47.408;18.940;2023-05-10T14:01:05;20.75;47.86
70336;SHT31;57756;47.408;18.940;2023-05-10T14:03:30;20.61;48.38
70336;SHT31;57756;47.408;18.940;2023-05-10T14:05:56;20.88;49.31
70336;SHT31;57756;47.408;18.940;2023-05-10T14:08:21;20.71;48.01
70336;SHT31;57756;47.408;18.940;2023-05-10T14:10:47;20.60;47.31
70336;SHT31;57756;47.408;18.940;2023-05-10T14:13:14;20.80;48.89
70336;SHT31;57756;47.408;18.940;2023-05-10T14:15:40;20.96;47.61
70336;SHT31;57756;47.408;18.940;2023-05-10T14:18:06;21.01;48.75
70336;SHT31;57756;47.408;18.940;2023-05-10T14:20:32;21.10;47.96
70336;SHT31;57756;47.408;18.940;2023-05-10T14:22:59;20.94;46.65
70336;SHT31;57756;47.408;18.940;2023-05-10T14:25:25;20.75;46.99
70336;SHT31;57756;47.408;18.940;2023-05-10T14:27:50;20.57;47.39
70336;SHT31;57756;47.408;18.940;2023-05-10T14:30:16;20.54;46.67
70336;SHT31;57756;47.408;18.940;2023-05-10T14:32:42;20.48;46.62
70336;SHT31;57756;47.408;18.940;2023-05-10T14:35:07;20.67;47.63
70336;SHT31;57756;47.408;18.940;2023-05-10T14:37:34;20.63;45.18
70336;SHT31;57756;47.408;18.940;2023-05-10T14:39:59;20.45;45.32
70336;SHT31;57756;47.408;18.940;2023-05-10T14:42:25;20.71;46.29
70336;SHT31;57756;47.408;18.940;2023-05-10T14:44:51;20.87;45.79
70336;SHT31;57756;47.408;18.940;2023-05-10T14:47:16;20.88;45.47
70336;SHT31;57756;47.408;18.940;2023-05-10T14:49:42;20.75;45.17
70336;SHT31;57756;47.408;18.940;2023-05-10T14:52:07;20.53;46.11
70336;SHT31;57756;47.408;18.940;2023-05-10T14:54:32;20.65;46.55
70336;SHT31;57756;47.408;18.940;2023-05-10T14:57:01;20.72;47.73
70336;SHT31;57756;47.408;18.940;2023-05-10T14:59:26;20.77;46.61
70336;SHT31;57756;47.408;18.940;2023-05-10T15:01:52;20.84;46.85
70336;SHT31;57756;47.408;18.940;2023-05-10T15:04:17;20.84;46.45
70336;SHT31;57756;47.408;18.940;2023-05-10T15:06:43;20.80;46.85
70336;SHT31;57756;47.408;18.940;2023-05-10T15:09:08;20.67;46.70
70336;SHT31;57756;47.408;18.940;2023-05-10T15:11:34;20.82;47.70
70336;SHT31;57756;47.408;18.940;2023-05-10T15:14:00;20.48;47.64
70336;SHT31;57756;47.408;18.940;2023-05-10T15:16:26;20.53;48.78
70336;SHT31;57756;47.408;18.940;2023-05-10T15:18:52;20.33;48.74
70336;SHT31;57756;47.408;18.940;2023-05-10T15:21:17;20.08;49.07
70336;SHT31;57756;47.408;18.940;2023-05-10T15:23:43;20.04;49.30
70336;SHT31;57756;47.408;18.940;2023-05-10T15:26:08;19.92;49.39
70336;SHT31;57756;47.408;18.940;2023-05-10T15:28:34;19.89;48.99
70336;SHT31;57756;47.408;18.940;2023-05-10T15:30:59;19.89;48.72
70336;SHT31;57756;47.408;18.940;2023-05-10T15:33:25;20.00;49.20
70336;SHT31;57756;47.408;18.940;2023-05-10T15:35:52;19.90;48.55
70336;SHT31;57756;47.408;18.940;2023-05-10T15:38:18;19.74;49.16
70336;SHT31;57756;47.408;18.940;2023-05-10T15:40:44;19.74;49.35